Gaz Century — H9NS — position and weather

sailwx.info

Track history (hours):
 
Tides and Currents Weather Stations Pressure Air Temp Water Temp Dewpoint Dewpoint Depression Visibility Wind Speed Wind Dir Waves Ship Positions

Gaz Century

Last reported at 2018-May-18 14:09 UTC. Time now 2018-May-22 01:57 UTC.
Position N 33°59' E 031°04'.

Length 113 m; draft 5 m.

Type: Ship (hazmat cat A). MMSI: 352019000.

Date/timePositionNaut miles runAvg speedWind from/ knotsBaromVisibWave heightAir tempDewpointWater temp
2018-May-18 14:09N 33°59' E 031°04'77 3.2
2018-May-17 14:06N 33°54' E 032°36'0 0.8
2018-May-17 13:56N 33°54' E 032°36'1 0.8
2018-May-17 13:10N 33°55' E 032°36'0 0.7
2018-May-17 12:55N 33°55' E 032°36'0 0.7
2018-May-17 12:30N 33°55' E 032°36'0 0.7
2018-May-17 12:00N 33°56' E 032°36'0 0.7
2018-May-17 11:31N 33°56' E 032°35'0 0.7
2018-May-17 11:00N 33°56' E 032°35'0 0.6
2018-May-17 10:30N 33°56' E 032°35'0 0.6
2018-May-17 10:00N 33°56' E 032°34'1 0.4
2018-May-17 06:30N 33°55' E 032°33'2 0.4
2018-May-17 01:22N 33°54' E 032°34'7 0.6
2018-May-16 14:34N 34°00' E 032°32'0 1.0
2018-May-16 14:30N 34°00' E 032°32'0 0.8
2018-May-16 14:01N 34°00' E 032°32'58 6.4
2018-May-16 04:57N 33°60' E 033°42'3 0.4
2018-May-15 21:29N 33°59' E 033°38'1 0.5
2018-May-15 20:01N 33°59' E 033°38'0 0.8
2018-May-15 19:56N 33°59' E 033°37'  
Track history (hours):
 
Tides and Currents Weather Stations Pressure Air Temp Water Temp Dewpoint Dewpoint Depression Visibility Wind Speed Wind Dir Waves Ship Positions

Gaz Century

Last reported at 2018-May-18 14:09 UTC. Time now 2018-May-22 01:57 UTC.
Position N 33°59' E 031°04'.

Length 113 m; draft 5 m.

Type: Ship (hazmat cat A). MMSI: 352019000.

Date/timePositionNaut miles runAvg speedWind from/ knotsBaromVisibWave heightAir tempDewpointWater temp
2018-May-18 14:09N 33°59' E 031°04'77 3.2
2018-May-17 14:06N 33°54' E 032°36'0 0.8
2018-May-17 13:56N 33°54' E 032°36'1 0.8
2018-May-17 13:10N 33°55' E 032°36'0 0.7
2018-May-17 12:55N 33°55' E 032°36'0 0.7
2018-May-17 12:30N 33°55' E 032°36'0 0.7
2018-May-17 12:00N 33°56' E 032°36'0 0.7
2018-May-17 11:31N 33°56' E 032°35'0 0.7
2018-May-17 11:00N 33°56' E 032°35'0 0.6
2018-May-17 10:30N 33°56' E 032°35'0 0.6
2018-May-17 10:00N 33°56' E 032°34'1 0.4
2018-May-17 06:30N 33°55' E 032°33'2 0.4
2018-May-17 01:22N 33°54' E 032°34'7 0.6
2018-May-16 14:34N 34°00' E 032°32'0 1.0
2018-May-16 14:30N 34°00' E 032°32'0 0.8
2018-May-16 14:01N 34°00' E 032°32'58 6.4
2018-May-16 04:57N 33°60' E 033°42'3 0.4
2018-May-15 21:29N 33°59' E 033°38'1 0.5
2018-May-15 20:01N 33°59' E 033°38'0 0.8
2018-May-15 19:56N 33°59' E 033°37'  

Dump ship's entire track history